Time;durP1;ratioP1;P1;durP2;ratioP2;P2;SDS_P1;SDS_P2;PMS_P1;PMS_P2;Temp;Humidity;BMP_temperature;BMP_pressure;BME280_temperature;BME280_humidity;BME280_pressure;Samples;Min_cycle;Max_cycle;Signal;HPM_P1;HPM_P2
2022/06/04 00:00:34;;;;;;;10.27;3.92;;;12.20;99.90;;;;;;5008857;28;20099;-80
2022/06/04 00:03:00;;;;;;;6.97;3.85;;;12.20;99.90;;;;;;5024659;28;20072;-80
2022/06/04 00:05:28;;;;;;;10.00;4.03;;;13.00;99.90;;;;;;5009974;28;20056;-80
2022/06/04 00:07:55;;;;;;;6.13;3.83;;;12.50;99.90;;;;;;5027250;28;20493;-80
2022/06/04 00:15:59;;;;;;;14.88;4.90;;;12.20;99.90;;;;;;5023835;28;20069;-80
2022/06/04 00:18:25;;;;;;;11.18;4.03;;;12.20;99.90;;;;;;5021094;28;20129;-80
2022/06/04 00:20:52;;;;;;;10.48;4.15;;;12.10;99.90;;;;;;5021460;28;20358;-80
2022/06/04 00:23:19;;;;;;;10.48;4.97;;;12.10;99.90;;;;;;5022020;28;20119;-80
2022/06/04 00:25:49;;;;;;;12.18;4.25;;;12.10;99.90;;;;;;5021039;28;20116;-80
2022/06/04 00:28:15;;;;;;;15.02;5.68;;;12.10;99.90;;;;;;5027727;28;20053;-80
2022/06/04 00:30:41;;;;;;;11.35;5.20;;;12.10;99.90;;;;;;5025652;28;20072;-80
2022/06/04 00:33:10;;;;;;;9.32;5.63;;;12.10;99.90;;;;;;5026733;28;20049;-80
2022/06/04 00:35:35;;;;;;;10.30;5.60;;;12.60;99.90;;;;;;5026490;28;20536;-79
2022/06/04 00:38:03;;;;;;;16.35;5.45;;;12.50;99.90;;;;;;5027199;28;20448;-80
2022/06/04 00:40:31;;;;;;;10.43;5.53;;;12.00;99.90;;;;;;5027748;28;20045;-80
2022/06/04 00:42:57;;;;;;;13.00;5.88;;;12.10;99.90;;;;;;5025719;28;20480;-80
2022/06/04 00:45:32;;;;;;;11.23;5.72;;;12.00;99.90;;;;;;5025731;28;20048;-80
2022/06/04 00:48:06;;;;;;;17.63;5.68;;;12.00;99.90;;;;;;5028793;28;20040;-80
2022/06/04 00:50:36;;;;;;;13.20;5.88;;;12.00;99.90;;;;;;5022410;28;20125;-79
2022/06/04 00:53:04;;;;;;;14.07;6.57;;;11.90;99.90;;;;;;5009470;28;20081;-80
2022/06/04 00:55:47;;;;;;;12.30;6.20;;;11.90;99.90;;;;;;5026084;28;20053;-80
2022/06/04 00:58:39;;;;;;;17.75;5.95;;;11.90;99.90;;;;;;5023020;28;20029;-80
2022/06/04 01:01:27;;;;;;;11.60;6.18;;;11.90;99.90;;;;;;5019923;28;20103;-80
2022/06/04 01:04:47;;;;;;;16.25;5.50;;;11.90;99.90;;;;;;5020228;28;20076;-80
2022/06/04 01:07:30;;;;;;;12.23;6.20;;;12.60;99.90;;;;;;5003732;28;20077;-80
2022/06/04 01:10:11;;;;;;;12.98;5.63;;;12.10;99.90;;;;;;5015791;28;20128;-80
2022/06/04 01:13:01;;;;;;;12.52;5.57;;;11.80;99.90;;;;;;5025988;28;20057;-80
2022/06/04 01:16:04;;;;;;;9.05;4.32;;;11.80;99.90;;;;;;5025583;28;20528;-80
2022/06/04 01:19:10;;;;;;;14.40;5.55;;;11.80;99.90;;;;;;5026716;28;20037;-81
2022/06/04 01:21:51;;;;;;;13.10;5.40;;;11.80;99.90;;;;;;4999113;28;20052;-79
2022/06/04 01:25:01;;;;;;;11.02;5.70;;;11.80;99.90;;;;;;5026968;28;20501;-79
2022/06/04 01:27:38;;;;;;;14.35;5.00;;;11.70;99.90;;;;;;5015755;28;20437;-79
2022/06/04 01:30:34;;;;;;;11.93;5.05;;;11.80;99.90;;;;;;5020754;28;20486;-79
2022/06/04 01:33:14;;;;;;;14.25;5.63;;;11.70;99.90;;;;;;5021727;28;20521;-79
2022/06/04 01:35:59;;;;;;;14.23;4.72;;;11.70;99.90;;;;;;5024207;28;20052;-79
2022/06/04 01:38:24;;;;;;;18.45;5.30;;;11.70;99.90;;;;;;5025655;28;20544;-79
2022/06/04 01:41:05;;;;;;;9.73;5.22;;;13.10;99.90;;;;;;5024619;28;20176;-79
2022/06/04 01:43:48;;;;;;;14.60;5.40;;;11.70;99.90;;;;;;5025627;28;20068;-79
2022/06/04 01:46:22;;;;;;;11.93;4.72;;;12.60;99.90;;;;;;5025721;28;20363;-79
2022/06/04 01:48:53;;;;;;;11.82;6.05;;;11.70;99.90;;;;;;5021050;28;20170;-80
2022/06/04 01:51:22;;;;;;;12.75;4.72;;;11.70;99.90;;;;;;5024797;28;20079;-79
2022/06/04 01:53:57;;;;;;;11.35;5.15;;;11.70;99.90;;;;;;5027581;28;20049;-79
2022/06/04 01:56:28;;;;;;;9.45;5.32;;;11.70;99.90;;;;;;5024836;28;20413;-79
2022/06/04 01:59:17;;;;;;;11.90;5.13;;;11.60;99.90;;;;;;5024214;28;20107;-79
2022/06/04 02:01:46;;;;;;;8.20;4.93;;;11.60;99.90;;;;;;5026000;28;20077;-79
2022/06/04 02:04:17;;;;;;;10.73;4.78;;;11.90;99.90;;;;;;5023237;28;20064;-80
2022/06/04 02:07:29;;;;;;;10.05;5.00;;;11.70;99.90;;;;;;5024853;28;20068;-79
2022/06/04 02:09:37;;;;;;;12.57;4.82;;;11.60;99.90;;;;;;5022912;28;20073;-80
2022/06/04 02:12:04;;;;;;;13.25;5.28;;;11.70;99.90;;;;;;5024296;28;20640;-80
2022/06/04 02:14:30;;;;;;;10.25;4.22;;;11.70;99.90;;;;;;5023100;28;20049;-79
2022/06/04 02:17:06;;;;;;;11.10;5.25;;;12.40;99.90;;;;;;5007308;28;20091;-79
2022/06/04 02:19:32;;;;;;;9.70;4.40;;;11.60;99.90;;;;;;5020132;28;20069;-79
2022/06/04 02:21:58;;;;;;;11.00;5.40;;;12.70;99.90;;;;;;5022407;28;20159;-80
2022/06/04 02:24:25;;;;;;;7.78;4.70;;;11.60;99.90;;;;;;5022626;28;20042;-79
2022/06/04 02:26:51;;;;;;;12.95;4.80;;;11.60;99.90;;;;;;5023290;28;20041;-79
2022/06/04 02:29:17;;;;;;;10.32;4.80;;;12.90;99.90;;;;;;5013083;28;20393;-79
2022/06/04 02:31:48;;;;;;;9.95;4.60;;;11.60;99.90;;;;;;5025762;28;20380;-79
2022/06/04 02:34:25;;;;;;;8.27;4.85;;;11.60;99.90;;;;;;5024756;28;20060;-79
2022/06/04 02:36:55;;;;;;;10.70;4.70;;;11.60;99.90;;;;;;5009606;28;20499;-79
2022/06/04 02:39:36;;;;;;;10.68;4.85;;;11.60;99.90;;;;;;5022486;28;20061;-79
2022/06/04 02:42:17;;;;;;;10.07;4.60;;;11.60;99.90;;;;;;5025308;28;20044;-79
2022/06/04 02:45:09;;;;;;;10.63;4.85;;;11.60;99.90;;;;;;5024018;28;20522;-79
2022/06/04 02:47:53;;;;;;;11.02;4.82;;;11.60;99.90;;;;;;5030260;28;20395;-79
2022/06/04 02:50:26;;;;;;;8.10;4.65;;;11.60;99.90;;;;;;5029045;28;20526;-79
2022/06/04 02:52:55;;;;;;;10.05;5.53;;;11.60;99.90;;;;;;5028643;28;20122;-79
2022/06/04 02:55:24;;;;;;;10.77;4.80;;;11.60;99.90;;;;;;5029202;28;20485;-79
2022/06/04 02:57:54;;;;;;;11.45;5.30;;;12.00;99.90;;;;;;5025496;28;20087;-79
2022/06/04 03:00:25;;;;;;;11.10;4.80;;;11.60;99.90;;;;;;5027288;28;20624;-79
2022/06/04 03:02:51;;;;;;;9.48;5.25;;;11.60;99.90;;;;;;5023436;28;20030;-79
2022/06/04 03:05:21;;;;;;;7.95;4.30;;;11.70;99.90;;;;;;5026333;28;20053;-80
2022/06/04 03:07:50;;;;;;;12.10;5.18;;;11.60;99.90;;;;;;5028761;28;20049;-80
2022/06/04 03:10:23;;;;;;;10.65;5.10;;;11.60;99.90;;;;;;5011035;28;20048;-80
2022/06/04 03:12:49;;;;;;;8.25;4.95;;;11.60;99.90;;;;;;5027026;28;20243;-80
2022/06/04 03:15:15;;;;;;;8.48;4.85;;;11.60;99.90;;;;;;5028599;28;20060;-79
2022/06/04 03:17:42;;;;;;;7.97;5.05;;;11.60;99.90;;;;;;5028589;28;20049;-79
2022/06/04 03:20:09;;;;;;;10.93;5.57;;;11.60;99.90;;;;;;5026673;28;20505;-80
2022/06/04 03:22:35;;;;;;;13.77;5.82;;;11.50;99.90;;;;;;5027780;28;20030;-79
2022/06/04 03:25:02;;;;;;;8.38;5.28;;;11.50;99.90;;;;;;5028532;28;20127;-79
2022/06/04 03:27:28;;;;;;;8.38;4.95;;;11.50;99.90;;;;;;5010897;28;20168;-79
2022/06/04 03:29:53;;;;;;;9.05;5.75;;;11.80;99.90;;;;;;5026200;28;20116;-79
2022/06/04 03:32:20;;;;;;;14.60;5.18;;;11.70;99.90;;;;;;5028672;28;20087;-79
2022/06/04 03:34:45;;;;;;;8.20;5.05;;;11.80;99.90;;;;;;5027105;28;20053;-79
2022/06/04 03:37:12;;;;;;;13.70;5.40;;;11.50;99.90;;;;;;5028243;28;20041;-79
2022/06/04 03:39:38;;;;;;;9.23;5.53;;;11.70;99.90;;;;;;5028291;28;20057;-79
2022/06/04 03:42:04;;;;;;;9.98;5.75;;;11.40;99.90;;;;;;5023696;28;20140;-79
2022/06/04 03:44:30;;;;;;;10.75;5.68;;;11.40;99.90;;;;;;5012789;28;20095;-79
2022/06/04 03:46:56;;;;;;;6.70;4.60;;;12.20;99.90;;;;;;5028364;28;20402;-79
2022/06/04 03:49:21;;;;;;;16.55;5.07;;;11.40;99.90;;;;;;5027669;28;20080;-80
2022/06/04 03:51:47;;;;;;;8.95;5.20;;;11.40;99.90;;;;;;5028995;28;20073;-80
2022/06/04 03:54:13;;;;;;;8.02;5.15;;;11.40;99.90;;;;;;5010858;28;20069;-79
2022/06/04 03:56:40;;;;;;;7.47;4.78;;;11.40;99.90;;;;;;5007174;28;20148;-79
2022/06/04 03:59:05;;;;;;;10.00;4.72;;;12.70;99.90;;;;;;5018388;28;20121;-79
2022/06/04 04:01:31;;;;;;;9.82;4.88;;;12.40;99.90;;;;;;5019871;28;20060;-79
2022/06/04 04:03:58;;;;;;;7.38;5.00;;;11.40;99.90;;;;;;5029102;28;20041;-79
2022/06/04 04:06:27;;;;;;;7.80;4.47;;;11.40;99.90;;;;;;5038930;28;20095;-79
2022/06/04 04:08:53;;;;;;;11.00;4.78;;;11.30;99.90;;;;;;5028518;28;20041;-79
2022/06/04 04:11:22;;;;;;;5.75;4.60;;;11.30;99.90;;;;;;5023461;28;20531;-79
2022/06/04 04:13:48;;;;;;;5.78;3.72;;;12.10;99.90;;;;;;5024152;28;20036;-79
2022/06/04 04:16:15;;;;;;;6.97;4.38;;;11.40;99.90;;;;;;5024438;28;20089;-79
2022/06/04 04:18:41;;;;;;;8.82;4.00;;;11.30;99.90;;;;;;5011798;28;20041;-79
2022/06/04 04:21:11;;;;;;;8.00;4.35;;;11.30;99.90;;;;;;5027930;28;20491;-79
2022/06/04 04:23:37;;;;;;;8.32;3.88;;;11.60;99.90;;;;;;5027606;28;20034;-79
2022/06/04 04:26:04;;;;;;;8.52;3.95;;;12.00;99.90;;;;;;5020395;28;20096;-80
2022/06/04 04:28:30;;;;;;;10.60;4.65;;;11.40;99.90;;;;;;5028657;28;20037;-79
2022/06/04 04:30:56;;;;;;;7.88;3.80;;;11.40;99.90;;;;;;5026443;28;20037;-79
2022/06/04 04:33:22;;;;;;;6.25;3.55;;;12.10;99.90;;;;;;5026703;28;20126;-79
2022/06/04 04:35:49;;;;;;;4.15;3.30;;;11.40;99.90;;;;;;5027893;28;20160;-79
2022/06/04 04:38:18;;;;;;;4.10;3.63;;;12.30;99.90;;;;;;5002360;28;20125;-79
2022/06/04 04:40:44;;;;;;;4.63;3.45;;;11.50;99.90;;;;;;5025705;28;20049;-79
2022/06/04 04:43:10;;;;;;;7.03;3.60;;;11.50;99.90;;;;;;5025408;28;20053;-79
2022/06/04 04:45:37;;;;;;;3.78;3.15;;;12.50;99.90;;;;;;5010153;28;20042;-79
2022/06/04 04:48:03;;;;;;;5.38;3.78;;;11.50;99.90;;;;;;5026302;28;20025;-79
2022/06/04 04:50:34;;;;;;;7.20;3.50;;;11.60;99.90;;;;;;5026565;28;20401;-79
2022/06/04 04:53:01;;;;;;;7.13;3.60;;;11.50;99.90;;;;;;5026426;28;20045;-79
2022/06/04 04:55:27;;;;;;;6.43;3.20;;;11.60;99.90;;;;;;5028092;28;20038;-78
2022/06/04 04:57:53;;;;;;;9.55;3.78;;;12.60;99.90;;;;;;5027071;28;20043;-78
2022/06/04 05:00:19;;;;;;;6.20;3.35;;;11.90;99.90;;;;;;5024642;28;20084;-79
2022/06/04 05:02:45;;;;;;;8.68;3.65;;;11.60;99.90;;;;;;5024762;28;20114;-79
2022/06/04 05:05:12;;;;;;;4.18;3.55;;;11.60;99.90;;;;;;5027415;28;20033;-79
2022/06/04 05:07:39;;;;;;;3.78;3.40;;;12.70;99.90;;;;;;5024240;28;20096;-79
2022/06/04 05:10:06;;;;;;;3.75;3.13;;;11.70;99.90;;;;;;5020098;28;20041;-79
2022/06/04 05:12:31;;;;;;;7.07;3.20;;;11.70;99.90;;;;;;5011003;28;20123;-78
2022/06/04 05:14:57;;;;;;;6.05;3.60;;;12.70;99.90;;;;;;5027281;28;20052;-79
2022/06/04 05:17:22;;;;;;;8.30;3.80;;;11.80;99.90;;;;;;5026555;28;20045;-80
2022/06/04 05:19:48;;;;;;;7.53;3.90;;;12.60;99.90;;;;;;5023992;28;20123;-80
2022/06/04 05:22:14;;;;;;;3.92;3.53;;;12.60;99.90;;;;;;5009995;28;20038;-80
2022/06/04 05:24:39;;;;;;;6.40;3.65;;;11.90;99.90;;;;;;5027093;28;20053;-80
2022/06/04 05:27:05;;;;;;;8.52;3.78;;;12.50;99.90;;;;;;5009105;28;20037;-80
2022/06/04 05:29:33;;;;;;;6.00;3.97;;;11.90;99.90;;;;;;5009997;28;20091;-80
2022/06/04 05:31:59;;;;;;;6.78;3.65;;;11.90;99.90;;;;;;5027048;28;20036;-80
2022/06/04 05:34:25;;;;;;;4.70;3.60;;;11.90;99.90;;;;;;5023916;28;20045;-80
2022/06/04 05:36:53;;;;;;;5.82;3.38;;;12.00;99.90;;;;;;5026325;28;20065;-79
2022/06/04 05:39:19;;;;;;;7.47;3.20;;;12.80;99.90;;;;;;5028090;28;20040;-80
2022/06/04 05:41:46;;;;;;;6.38;3.38;;;12.10;99.90;;;;;;5027000;28;20132;-80
2022/06/04 05:44:12;;;;;;;7.07;3.40;;;12.10;99.90;;;;;;5026141;28;20037;-79
2022/06/04 05:46:42;;;;;;;6.88;4.15;;;12.10;99.90;;;;;;5025931;28;20079;-80
2022/06/04 05:49:12;;;;;;;6.68;3.78;;;12.20;99.90;;;;;;5041743;28;20033;-79
2022/06/04 05:51:40;;;;;;;8.55;3.55;;;12.20;99.90;;;;;;5026433;28;20060;-79
2022/06/04 05:54:06;;;;;;;4.30;3.10;;;12.20;99.90;;;;;;5025845;28;20052;-79
2022/06/04 05:56:35;;;;;;;6.07;3.90;;;13.50;99.90;;;;;;5020998;28;20038;-78
2022/06/04 05:59:04;;;;;;;6.05;3.67;;;12.30;99.90;;;;;;5021954;28;20453;-78
2022/06/04 06:01:31;;;;;;;8.07;3.85;;;12.30;99.90;;;;;;5022281;28;20042;-78
2022/06/04 06:03:58;;;;;;;10.75;3.47;;;12.30;99.90;;;;;;5005455;28;20092;-80
2022/06/04 06:06:27;;;;;;;3.75;3.08;;;12.30;99.90;;;;;;4318562;28;10000802;-80
2022/06/04 06:08:54;;;;;;;6.65;4.18;;;12.50;99.90;;;;;;5024174;28;20069;-80
2022/06/04 06:11:20;;;;;;;9.65;3.75;;;12.50;99.90;;;;;;5018410;28;20044;-81
2022/06/04 06:13:48;;;;;;;5.10;3.38;;;12.50;99.90;;;;;;5003384;28;20064;-81
2022/06/04 06:16:36;;;;;;;6.85;4.18;;;12.50;99.90;;;;;;5014878;28;20045;-81
2022/06/04 06:19:01;;;;;;;5.40;3.63;;;13.20;99.90;;;;;;5000410;28;20580;-80
2022/06/04 06:21:31;;;;;;;9.00;4.10;;;13.00;99.90;;;;;;5006739;28;20033;-80
2022/06/04 06:23:57;;;;;;;6.60;3.55;;;12.60;99.90;;;;;;5023595;28;20048;-81
2022/06/04 06:26:29;;;;;;;3.97;3.60;;;13.70;99.90;;;;;;5024285;28;20042;-80
2022/06/04 06:28:56;;;;;;;4.03;3.70;;;12.60;99.90;;;;;;5023630;28;20052;-80
2022/06/04 06:31:24;;;;;;;4.22;3.70;;;13.70;99.90;;;;;;5023609;28;20060;-80
2022/06/04 06:33:50;;;;;;;6.25;4.10;;;13.50;99.90;;;;;;5031652;28;20534;-80
2022/06/04 06:36:17;;;;;;;6.68;3.92;;;13.50;99.90;;;;;;5024000;28;20034;-81
2022/06/04 06:38:45;;;;;;;10.38;4.07;;;13.70;99.90;;;;;;5020404;28;20468;-81
2022/06/04 06:41:17;;;;;;;7.07;4.18;;;12.90;99.90;;;;;;5022116;28;20038;-80
2022/06/04 06:43:50;;;;;;;8.77;4.15;;;12.90;99.90;;;;;;5005414;28;20155;-80
2022/06/04 06:46:23;;;;;;;5.05;3.90;;;13.00;99.90;;;;;;5006834;28;20045;-81
2022/06/04 06:48:51;;;;;;;6.10;4.03;;;13.00;99.90;;;;;;5023570;28;20055;-81
2022/06/04 06:51:24;;;;;;;8.57;4.15;;;13.70;99.90;;;;;;5020898;28;20041;-81
2022/06/04 06:53:50;;;;;;;5.75;3.90;;;13.10;99.90;;;;;;5023648;28;20111;-80
2022/06/04 06:56:19;;;;;;;6.18;3.83;;;13.00;99.90;;;;;;5022014;28;20041;-81
2022/06/04 06:58:46;;;;;;;7.22;4.13;;;13.10;99.90;;;;;;5023145;28;20060;-79
2022/06/04 07:01:13;;;;;;;5.43;3.85;;;14.10;99.90;;;;;;5023339;28;20176;-80
2022/06/04 07:03:39;;;;;;;22.23;17.15;;;13.20;99.90;;;;;;5021009;28;20058;-78
2022/06/04 07:06:07;;;;;;;17.98;12.77;;;13.20;99.90;;;;;;5006289;28;20054;-78
2022/06/04 07:08:37;;;;;;;8.82;4.65;;;13.30;99.90;;;;;;5021228;28;20064;-77
2022/06/04 07:11:04;;;;;;;7.22;4.00;;;13.40;99.90;;;;;;5025139;28;20033;-79
2022/06/04 07:13:29;;;;;;;4.75;3.47;;;13.40;99.90;;;;;;5023349;28;20049;-78
2022/06/04 07:15:55;;;;;;;6.10;4.28;;;13.40;99.90;;;;;;5024164;28;20908;-77
2022/06/04 07:18:21;;;;;;;6.60;3.60;;;14.30;99.90;;;;;;5021896;28;20494;-75
2022/06/04 07:20:47;;;;;;;5.25;4.20;;;13.50;99.90;;;;;;5020760;28;20044;-81
2022/06/04 07:23:13;;;;;;;7.10;4.00;;;14.00;99.90;;;;;;5027305;28;20124;-81
2022/06/04 07:25:41;;;;;;;5.00;3.97;;;13.50;99.90;;;;;;5024054;28;20485;-78
2022/06/04 07:28:09;;;;;;;5.65;3.65;;;13.60;99.90;;;;;;5006600;28;20076;-80
2022/06/04 07:30:35;;;;;;;5.07;3.90;;;13.60;99.90;;;;;;5007545;28;20501;-79
2022/06/04 07:33:01;;;;;;;4.30;3.90;;;13.60;99.90;;;;;;4675853;28;10000131;-82
2022/06/04 07:35:27;;;;;;;5.75;5.25;;;14.20;99.90;;;;;;5002009;28;20049;-81
2022/06/04 07:37:53;;;;;;;4.53;3.80;;;13.70;99.90;;;;;;5009852;28;20048;-77
2022/06/04 07:40:19;;;;;;;5.53;4.50;;;13.80;99.90;;;;;;5008642;28;21084;-78
2022/06/04 07:42:46;;;;;;;5.68;3.47;;;13.80;99.90;;;;;;5025246;28;20041;-76
2022/06/04 07:45:11;;;;;;;5.53;4.30;;;13.80;99.90;;;;;;5025933;28;20405;-83
2022/06/04 07:47:40;;;;;;;7.00;4.25;;;14.10;99.90;;;;;;5002903;28;20513;-83
2022/06/04 07:50:10;;;;;;;6.13;3.60;;;13.90;99.90;;;;;;5028415;28;20091;-79
2022/06/04 07:52:37;;;;;;;5.40;3.72;;;13.90;99.90;;;;;;5010468;28;20045;-79
2022/06/04 07:55:07;;;;;;;7.22;3.53;;;14.00;99.90;;;;;;5020366;28;20357;-83
2022/06/04 07:57:37;;;;;;;3.85;3.38;;;14.00;99.90;;;;;;5008084;28;20477;-83
2022/06/04 08:00:06;;;;;;;9.18;3.90;;;14.10;99.90;;;;;;5023512;28;20501;-84
2022/06/04 08:02:31;;;;;;;7.03;3.47;;;14.20;99.90;;;;;;5008767;28;20136;-83
2022/06/04 08:04:57;;;;;;;5.70;3.70;;;14.20;99.90;;;;;;5025361;28;20528;-78
2022/06/04 08:07:24;;;;;;;5.55;4.00;;;14.40;99.90;;;;;;5006077;28;20049;-81
2022/06/04 08:09:50;;;;;;;7.03;3.90;;;14.40;99.90;;;;;;5023369;28;20109;-76
2022/06/04 08:12:17;;;;;;;7.30;3.60;;;14.50;99.90;;;;;;5027301;28;20457;-73
2022/06/04 08:14:43;;;;;;;6.03;2.75;;;15.00;99.90;;;;;;5027789;28;20056;-73
2022/06/04 08:17:09;;;;;;;3.97;3.30;;;14.80;99.90;;;;;;5027543;28;20536;-72
2022/06/04 08:19:37;;;;;;;3.95;3.28;;;14.70;99.90;;;;;;5028953;28;20046;-72
2022/06/04 08:22:04;;;;;;;5.75;2.75;;;14.90;99.90;;;;;;5028408;28;20049;-74
2022/06/04 08:24:30;;;;;;;5.05;2.83;;;14.80;99.90;;;;;;5010547;28;20444;-75
2022/06/04 08:27:00;;;;;;;2.90;2.67;;;14.90;99.90;;;;;;5029657;28;20469;-72
2022/06/04 08:29:30;;;;;;;5.05;3.17;;;15.40;99.90;;;;;;5029597;28;20045;-73
2022/06/04 08:31:56;;;;;;;6.35;3.47;;;15.30;99.90;;;;;;5026898;28;20495;-74
2022/06/04 08:34:22;;;;;;;4.75;2.97;;;15.10;99.90;;;;;;5030061;28;20042;-74
2022/06/04 08:36:48;;;;;;;5.43;2.90;;;15.20;99.90;;;;;;5028942;28;20041;-74
2022/06/04 08:39:14;;;;;;;4.47;3.03;;;15.20;99.90;;;;;;5030488;28;20033;-75
2022/06/04 08:41:58;;;;;;;3.40;2.45;;;15.20;99.90;;;;;;5027829;28;20409;-73
2022/06/04 08:44:43;;;;;;;4.97;3.00;;;15.20;99.90;;;;;;5029240;28;20048;-74
2022/06/04 08:47:29;;;;;;;5.43;3.25;;;15.30;99.90;;;;;;5029825;28;20051;-73
2022/06/04 08:50:23;;;;;;;4.97;3.10;;;15.20;99.90;;;;;;5011686;28;20096;-73
2022/06/04 08:52:55;;;;;;;4.93;2.90;;;15.20;99.90;;;;;;5022284;28;20037;-74
2022/06/04 08:58:21;;;;;;;3.50;3.10;;;15.30;99.90;;;;;;5024722;28;20128;-72
2022/06/04 09:01:03;;;;;;;4.55;3.47;;;15.30;99.90;;;;;;5027335;28;20057;-73
2022/06/04 09:03:50;;;;;;;3.67;3.20;;;15.30;99.90;;;;;;5011477;28;20033;-74
2022/06/04 09:06:22;;;;;;;3.25;2.92;;;15.40;99.90;;;;;;5026673;28;20064;-71
2022/06/04 09:08:58;;;;;;;5.47;3.38;;;15.40;99.90;;;;;;5026743;28;20083;-73
2022/06/04 09:12:02;;;;;;;3.50;2.85;;;15.60;99.90;;;;;;5027303;28;20452;-71
2022/06/04 09:14:34;;;;;;;5.72;3.05;;;15.70;99.90;;;;;;5027486;28;20053;-74
2022/06/04 09:17:09;;;;;;;6.05;3.40;;;15.80;99.90;;;;;;5010812;28;20049;-73
2022/06/04 09:19:40;;;;;;;7.93;3.13;;;15.90;99.90;;;;;;5022474;28;20465;-73
2022/06/04 09:22:39;;;;;;;6.97;4.60;;;16.10;99.90;;;;;;5027401;28;20099;-71
2022/06/04 09:25:07;;;;;;;4.95;2.80;;;16.10;99.90;;;;;;5028709;28;20053;-73
2022/06/04 09:27:40;;;;;;;4.57;3.00;;;16.10;99.90;;;;;;5025743;28;20042;-73
2022/06/04 09:30:09;;;;;;;6.88;3.60;;;16.10;99.90;;;;;;5022940;28;20049;-74
2022/06/04 09:32:53;;;;;;;5.30;3.20;;;16.10;99.90;;;;;;5021187;28;20096;-75
2022/06/04 09:35:25;;;;;;;6.00;2.77;;;16.10;99.90;;;;;;5025606;28;20045;-75
2022/06/04 09:37:52;;;;;;;5.63;2.85;;;16.20;99.90;;;;;;5024139;28;20507;-75
2022/06/04 09:40:33;;;;;;;6.07;3.03;;;16.20;99.90;;;;;;5025368;28;20100;-74
2022/06/04 09:43:07;;;;;;;4.00;2.83;;;16.30;99.90;;;;;;5026992;28;20033;-73
2022/06/04 09:45:33;;;;;;;4.68;2.88;;;16.30;99.90;;;;;;5027344;28;20057;-73
2022/06/04 09:47:59;;;;;;;5.15;3.20;;;16.40;99.90;;;;;;5009759;28;20487;-71
2022/06/04 09:50:28;;;;;;;4.40;2.72;;;16.40;99.90;;;;;;5021946;28;20088;-72
2022/06/04 09:53:03;;;;;;;6.25;2.92;;;16.40;99.90;;;;;;5026504;28;20037;-74
2022/06/04 09:55:32;;;;;;;2.88;2.58;;;16.40;99.90;;;;;;5026885;28;20052;-75
2022/06/04 09:58:02;;;;;;;5.53;2.75;;;16.50;99.90;;;;;;5027090;28;20432;-74
2022/06/04 10:00:35;;;;;;;4.57;3.00;;;16.60;99.90;;;;;;5026559;28;20496;-74
2022/06/04 10:03:10;;;;;;;6.90;2.75;;;16.70;99.90;;;;;;5023991;28;20520;-73
2022/06/04 10:05:36;;;;;;;4.43;2.22;;;16.70;99.90;;;;;;5028421;28;20497;-74
2022/06/04 10:08:12;;;;;;;4.10;2.78;;;16.70;99.90;;;;;;5025340;28;20049;-72
2022/06/04 10:10:44;;;;;;;4.60;2.80;;;16.80;99.90;;;;;;5024937;28;20191;-74
2022/06/04 10:16:21;;;;;;;3.03;2.45;;;16.90;99.90;;;;;;5024272;28;20045;-76
2022/06/04 10:19:16;;;;;;;4.05;2.47;;;17.00;99.90;;;;;;5023738;28;20042;-81
2022/06/04 10:21:44;;;;;;;3.72;2.40;;;17.00;99.90;;;;;;5028477;28;20034;-80
2022/06/04 10:24:19;;;;;;;5.93;2.70;;;17.10;99.90;;;;;;5032400;28;20045;-82
2022/06/04 10:27:03;;;;;;;4.88;2.33;;;17.20;99.90;;;;;;5009496;28;20030;-80
2022/06/04 10:29:29;;;;;;;;;;;17.30;99.90;;;;;;5021624;28;20220;-76
2022/06/04 10:32:17;;;;;;;2.25;2.05;;;17.30;99.90;;;;;;5023794;28;20004;-79
2022/06/04 10:35:13;;;;;;;3.53;2.25;;;17.40;99.90;;;;;;5008848;28;20051;-80
2022/06/04 10:38:13;;;;;;;3.17;2.58;;;17.50;99.90;;;;;;5008883;28;20730;-80
2022/06/04 10:40:51;;;;;;;4.38;2.83;;;17.60;99.90;;;;;;5024272;28;20505;-78
2022/06/04 10:43:27;;;;;;;6.28;3.80;;;17.60;99.90;;;;;;5010043;28;20449;-80
2022/06/04 10:46:00;;;;;;;8.80;4.88;;;18.20;99.90;;;;;;5023551;28;20362;-79
2022/06/04 10:48:34;;;;;;;5.50;2.78;;;17.80;99.90;;;;;;5026800;28;20068;-80
2022/06/04 10:51:28;;;;;;;3.53;2.53;;;17.80;99.90;;;;;;5026567;28;20103;-80
2022/06/04 10:54:24;;;;;;;4.50;2.65;;;18.00;99.90;;;;;;5006226;28;20049;-80
2022/06/04 10:57:16;;;;;;;8.40;2.95;;;18.10;99.90;;;;;;4999877;28;20095;-80
2022/06/04 11:00:05;;;;;;;5.10;2.67;;;18.10;99.90;;;;;;5027571;28;20080;-80
2022/06/04 11:02:37;;;;;;;3.38;2.03;;;18.20;99.90;;;;;;5024559;28;20162;-80
2022/06/04 11:05:14;;;;;;;3.83;2.42;;;18.30;99.90;;;;;;5028153;28;20382;-79
2022/06/04 11:08:05;;;;;;;3.78;2.22;;;18.30;99.90;;;;;;5031547;28;20057;-81
2022/06/04 11:10:36;;;;;;;7.32;3.15;;;18.50;99.90;;;;;;5028500;28;20057;-81
2022/06/04 11:13:21;;;;;;;4.55;3.10;;;18.50;99.90;;;;;;5029697;28;20037;-81
2022/06/04 11:16:01;;;;;;;5.50;2.58;;;18.70;99.90;;;;;;5025562;28;20041;-82
2022/06/04 11:18:51;;;;;;;5.10;2.92;;;18.80;99.90;;;;;;5031523;28;20056;-81
2022/06/04 11:21:42;;;;;;;4.05;2.53;;;19.00;99.90;;;;;;5012652;28;20038;-82
2022/06/04 11:24:29;;;;;;;6.90;2.60;;;19.10;99.90;;;;;;5013632;28;20125;-80
2022/06/04 11:27:17;;;;;;;2.92;2.60;;;19.60;99.90;;;;;;5023079;28;20100;-80
2022/06/04 11:29:43;;;;;;;5.10;2.45;;;19.30;99.90;;;;;;5027570;28;20037;-78
2022/06/04 11:32:19;;;;;;;4.30;2.15;;;19.00;99.90;;;;;;5029329;28;20072;-81
2022/06/04 11:34:53;;;;;;;2.50;2.10;;;19.40;99.90;;;;;;5030709;28;20058;-80
2022/06/04 11:37:27;;;;;;;;;;;19.50;99.90;;;;;;5030401;28;20049;-81
2022/06/04 11:40:01;;;;;;;2.83;2.05;;;19.60;99.90;;;;;;5020278;28;20295;-80
2022/06/04 11:42:44;;;;;;;2.78;2.20;;;19.80;99.90;;;;;;5026505;28;20037;-81
2022/06/04 11:45:42;;;;;;;10.35;7.70;;;19.90;99.90;;;;;;5026777;28;20048;-81
2022/06/04 11:48:44;;;;;;;5.03;3.50;;;20.00;99.90;;;;;;5024071;28;20046;-80
2022/06/04 11:51:16;;;;;;;2.50;2.30;;;20.10;99.90;;;;;;5028472;28;20117;-80
2022/06/04 11:53:55;;;;;;;5.07;2.50;;;20.20;99.90;;;;;;5028645;28;20045;-79
2022/06/04 11:56:47;;;;;;;3.42;2.55;;;20.70;99.90;;;;;;5013267;28;20044;-77
2022/06/04 11:59:19;;;;;;;3.22;2.83;;;20.30;99.90;;;;;;5028035;28;20045;-77
2022/06/04 12:01:59;;;;;;;4.65;3.30;;;21.20;99.90;;;;;;5012074;28;20448;-78
2022/06/04 12:04:30;;;;;;;3.70;3.13;;;20.50;99.90;;;;;;5015082;28;20045;-78
2022/06/04 12:07:18;;;;;;;3.22;2.40;;;21.50;99.90;;;;;;5027858;28;20476;-82
2022/06/04 12:10:06;;;;;;;7.03;3.25;;;20.70;99.90;;;;;;5006348;28;20042;-84
2022/06/04 12:12:45;;;;;;;7.68;2.50;;;20.80;99.90;;;;;;5008458;28;20034;-82
2022/06/04 12:15:33;;;;;;;4.03;2.35;;;20.80;99.90;;;;;;5037008;28;20413;-81
2022/06/04 12:18:04;;;;;;;3.20;2.60;;;20.80;99.90;;;;;;5026696;28;20041;-81
2022/06/04 12:26:25;;;;;;;5.00;2.55;;;20.90;99.90;;;;;;5029460;28;20042;-84
2022/06/04 12:28:51;;;;;;;5.47;2.72;;;21.10;99.90;;;;;;5020084;28;20504;-83
2022/06/04 12:31:34;;;;;;;3.30;2.10;;;21.50;99.90;;;;;;5029012;28;20030;-82
2022/06/04 12:34:01;;;;;;;7.53;3.20;;;21.20;99.90;;;;;;5021461;28;20056;-75
2022/06/04 12:36:37;;;;;;;6.18;2.95;;;21.40;99.90;;;;;;4998814;28;20046;-74
2022/06/04 12:39:21;;;;;;;7.57;2.75;;;21.40;99.90;;;;;;5027370;28;20046;-76
2022/06/04 12:41:54;;;;;;;11.95;2.65;;;21.50;99.90;;;;;;5023954;28;20176;-81
2022/06/04 12:44:33;;;;;;;8.18;2.70;;;21.50;99.90;;;;;;5028247;28;20101;-76
2022/06/04 12:47:24;;;;;;;6.78;3.17;;;21.60;99.90;;;;;;5028419;28;20111;-73
2022/06/04 12:50:18;;;;;;;6.63;3.08;;;21.60;99.90;;;;;;5028099;28;20057;-76
2022/06/04 12:52:59;;;;;;;7.82;2.75;;;21.60;99.90;;;;;;5028523;28;20073;-74
2022/06/04 12:55:38;;;;;;;5.15;2.88;;;21.60;99.90;;;;;;5029194;28;20528;-74
2022/06/04 12:58:34;;;;;;;5.63;2.70;;;21.70;99.90;;;;;;5028459;28;20041;-80
2022/06/04 13:01:20;;;;;;;9.88;3.83;;;21.70;99.90;;;;;;5027727;28;20049;-80
2022/06/04 13:04:01;;;;;;;9.10;3.67;;;21.70;99.90;;;;;;5026687;28;20132;-81
2022/06/04 13:06:46;;;;;;;6.82;2.63;;;21.60;99.90;;;;;;5018676;28;20152;-81
2022/06/04 13:09:31;;;;;;;4.88;2.65;;;21.60;99.90;;;;;;5027579;28;20053;-81
2022/06/04 13:12:47;;;;;;;5.95;3.00;;;21.60;99.90;;;;;;5026029;28;20029;-79
2022/06/04 13:15:15;;;;;;;8.27;2.65;;;21.40;99.90;;;;;;5019332;28;20085;-83
2022/06/04 13:17:50;;;;;;;7.32;2.75;;;21.30;99.90;;;;;;5030429;28;20041;-82
2022/06/04 13:20:38;;;;;;;11.23;3.70;;;21.30;99.90;;;;;;5032546;28;20124;-81
2022/06/04 13:23:16;;;;;;;11.93;3.80;;;21.10;99.90;;;;;;5022391;28;20037;-81
2022/06/04 13:25:50;;;;;;;11.70;5.05;;;21.10;99.90;;;;;;5027117;28;20049;-82
2022/06/04 13:28:37;;;;;;;4.68;3.13;;;21.00;99.90;;;;;;5025909;28;20119;-83
2022/06/04 13:31:15;;;;;;;4.43;2.85;;;20.90;99.90;;;;;;5025049;28;20030;-82
2022/06/04 13:33:41;;;;;;;13.25;3.05;;;20.90;99.90;;;;;;5024577;28;20541;-83